createdAt,value
2018-04-13T00:01:38.492Z,97.60
2018-04-13T00:10:18.192Z,98.00
2018-04-13T00:13:07.905Z,98.30
2018-04-13T00:16:03.239Z,97.80
2018-04-13T00:30:36.663Z,98.20
2018-04-13T05:18:57.912Z,99.90
2018-04-13T05:34:45.193Z,99.90
2018-04-13T06:19:32.432Z,99.90
2018-04-13T06:26:00.017Z,99.90
2018-04-13T06:28:51.706Z,99.90
2018-04-13T06:31:51.556Z,99.90
2018-04-13T06:34:38.614Z,99.90
2018-04-13T06:37:30.064Z,99.90
2018-04-13T06:40:15.578Z,99.90
2018-04-13T06:42:43.978Z,99.90
2018-04-13T06:45:14.432Z,99.90
2018-04-13T06:47:46.568Z,99.90
2018-04-13T06:50:15.728Z,99.90
2018-04-13T06:52:44.263Z,99.90
2018-04-13T06:57:59.890Z,99.90
2018-04-13T07:00:29.675Z,99.90
2018-04-13T07:02:57.982Z,99.90
2018-04-13T07:05:26.760Z,99.90
2018-04-13T07:07:55.620Z,99.90
2018-04-13T07:10:25.862Z,99.90
2018-04-13T07:12:54.720Z,99.90
2018-04-13T07:15:25.778Z,99.90
2018-04-13T07:17:53.548Z,99.90
2018-04-13T07:20:21.806Z,99.90
2018-04-13T07:22:50.699Z,99.90
2018-04-13T07:25:18.374Z,99.90
2018-04-13T07:27:46.418Z,99.90
2018-04-13T07:30:16.020Z,99.90
2018-04-13T07:32:44.148Z,99.90
2018-04-13T07:35:11.949Z,99.90
2018-04-13T07:37:40.166Z,99.90
2018-04-13T07:40:08.948Z,99.90
2018-04-13T07:42:37.032Z,99.90
2018-04-13T07:45:05.720Z,99.90
2018-04-13T07:47:34.574Z,99.90
2018-04-13T07:50:04.151Z,99.90
2018-04-13T07:52:32.758Z,99.90
2018-04-13T07:55:01.710Z,99.90
2018-04-13T07:57:29.704Z,99.90
2018-04-13T07:59:57.451Z,99.90
2018-04-13T08:02:25.661Z,99.90
2018-04-13T08:22:05.743Z,99.90
2018-04-13T08:24:34.676Z,99.90
2018-04-13T08:27:03.229Z,99.90
2018-04-13T08:29:34.198Z,99.90
2018-04-13T08:32:05.417Z,99.90
2018-04-13T08:34:38.070Z,99.90
2018-04-13T08:37:09.916Z,99.90
2018-04-13T08:39:39.208Z,99.90
2018-04-13T08:42:08.041Z,99.90
2018-04-13T08:44:40.474Z,99.90
2018-04-13T08:47:09.695Z,99.90
2018-04-13T08:49:37.982Z,99.90
2018-04-13T08:52:07.827Z,99.90
2018-04-13T08:54:36.131Z,99.90
2018-04-13T08:57:04.155Z,99.90
2018-04-13T08:59:32.126Z,99.90
2018-04-13T09:02:02.479Z,99.90
2018-04-13T09:04:31.914Z,99.90
2018-04-13T09:07:00.890Z,99.90
2018-04-13T09:09:28.874Z,99.90
2018-04-13T09:11:57.238Z,99.90
2018-04-13T09:14:25.230Z,99.90
2018-04-13T09:16:55.560Z,99.90
2018-04-13T09:19:23.901Z,99.90
2018-04-13T09:21:54.325Z,99.90
2018-04-13T09:24:23.430Z,99.90
2018-04-13T09:26:53.286Z,99.90
2018-04-13T09:29:22.802Z,99.90
2018-04-13T09:31:51.745Z,99.90
2018-04-13T09:34:19.848Z,99.90
2018-04-13T09:36:49.897Z,99.90
2018-04-13T09:39:18.038Z,99.90
2018-04-13T09:41:46.757Z,99.90
2018-04-13T09:44:15.688Z,99.90
2018-04-13T09:46:44.896Z,99.90
2018-04-13T09:49:14.158Z,99.90
2018-04-13T09:57:29.098Z,99.90
2018-04-13T09:59:57.442Z,99.90
2018-04-13T10:02:32.228Z,99.90
2018-04-13T10:05:00.445Z,99.90
2018-04-13T10:07:28.318Z,99.90
2018-04-13T10:09:56.852Z,99.90
2018-04-13T10:12:24.761Z,99.90
2018-04-13T10:14:54.939Z,99.90
2018-04-13T10:17:23.024Z,99.90
2018-04-13T10:19:51.151Z,99.90
2018-04-13T10:22:19.707Z,99.90
2018-04-13T10:24:54.383Z,99.90
2018-04-13T10:30:29.398Z,99.90
2018-04-13T10:32:58.774Z,99.90
2018-04-13T10:35:26.836Z,99.90
2018-04-13T10:37:54.975Z,99.90
2018-04-13T10:40:23.288Z,99.90
2018-04-13T10:42:51.974Z,99.90
2018-04-13T10:45:20.840Z,99.90
2018-04-13T10:47:49.511Z,99.60
2018-04-13T10:50:19.623Z,99.60
2018-04-13T10:52:48.989Z,99.50
2018-04-13T10:58:10.451Z,99.90
2018-04-13T11:00:39.322Z,99.90
2018-04-13T11:03:12.297Z,99.90
2018-04-13T11:05:41.342Z,99.90
2018-04-13T11:08:10.171Z,99.90
2018-04-13T11:10:46.264Z,99.90
2018-04-13T11:13:14.931Z,99.90
2018-04-13T11:15:44.083Z,99.90
2018-04-13T11:18:13.796Z,99.90
2018-04-13T11:20:42.827Z,99.90
2018-04-13T11:23:12.235Z,99.90
2018-04-13T11:25:41.422Z,99.90
2018-04-13T11:42:35.689Z,99.90
2018-04-13T11:50:44.488Z,99.90
2018-04-13T11:56:08.604Z,99.90
2018-04-13T11:58:50.341Z,99.90
2018-04-13T12:01:20.510Z,99.90
2018-04-13T12:04:00.872Z,99.90
2018-04-13T12:06:32.549Z,99.90
2018-04-13T12:11:59.393Z,99.90
2018-04-13T12:17:22.841Z,99.90
2018-04-13T12:19:51.971Z,99.90
2018-04-13T12:22:22.131Z,99.90
2018-04-13T12:27:51.829Z,99.90
2018-04-13T12:30:30.833Z,99.90
2018-04-13T12:35:52.900Z,99.90
2018-04-13T12:38:20.843Z,99.90
2018-04-13T12:40:50.561Z,99.90
2018-04-13T12:43:18.569Z,99.90
2018-04-13T12:45:46.833Z,99.90
2018-04-13T12:48:14.523Z,99.90
2018-04-13T12:50:42.984Z,99.90
2018-04-13T12:53:11.119Z,99.90
2018-04-13T12:55:38.980Z,99.90
2018-04-13T12:58:07.082Z,99.90
2018-04-13T13:00:34.994Z,99.90
2018-04-13T13:03:03.158Z,99.90
2018-04-13T13:05:30.948Z,99.90
2018-04-13T13:07:59.683Z,99.90
2018-04-13T13:10:28.669Z,99.90
2018-04-13T13:12:57.112Z,99.90
2018-04-13T13:15:26.370Z,99.90
2018-04-13T13:17:54.435Z,99.90
2018-04-13T13:20:22.867Z,99.90
2018-04-13T13:22:51.344Z,99.90
2018-04-13T13:25:20.154Z,99.90
2018-04-13T13:27:47.925Z,99.90
2018-04-13T13:30:16.632Z,99.80
2018-04-13T13:32:44.686Z,98.10
2018-04-13T13:35:12.976Z,97.00
2018-04-13T13:37:41.263Z,94.20
2018-04-13T13:40:09.252Z,92.70
2018-04-13T13:42:37.131Z,90.20
2018-04-13T13:45:05.952Z,87.90
2018-04-13T13:47:34.952Z,80.10
2018-04-13T13:50:02.996Z,79.80
2018-04-13T13:52:30.956Z,78.70
2018-04-13T13:55:00.064Z,77.90
2018-04-13T13:57:27.991Z,72.50
2018-04-13T14:05:35.592Z,68.50
2018-04-13T14:08:04.194Z,64.50
2018-04-13T14:10:32.267Z,64.30
2018-04-13T14:13:00.834Z,62.70
2018-04-13T14:15:30.247Z,62.00
2018-04-13T14:17:59.264Z,60.60
2018-04-13T14:20:27.811Z,60.60
2018-04-13T14:22:56.564Z,58.80
2018-04-13T14:25:25.455Z,58.70
2018-04-13T14:27:54.313Z,57.10
2018-04-13T14:30:23.119Z,57.40
2018-04-13T14:32:51.242Z,58.20
2018-04-13T14:35:20.008Z,55.70
2018-04-13T14:37:47.987Z,55.60
2018-04-13T14:40:15.508Z,56.20
2018-04-13T14:42:44.023Z,55.00
2018-04-13T14:45:11.572Z,53.90
2018-04-13T14:47:39.154Z,53.60
2018-04-13T14:50:06.714Z,52.30
2018-04-13T14:52:34.211Z,52.30
2018-04-13T14:55:01.730Z,51.00
2018-04-13T14:57:29.866Z,50.60
2018-04-13T14:59:57.378Z,50.40
2018-04-13T15:02:24.952Z,49.70
2018-04-13T15:04:55.037Z,49.30
2018-04-13T15:07:22.652Z,49.20
2018-04-13T15:09:50.920Z,50.20
2018-04-13T15:12:19.129Z,51.10
2018-04-13T15:14:46.731Z,51.90
2018-04-13T15:20:08.930Z,54.10
2018-04-13T15:22:36.428Z,54.10
2018-04-13T15:25:03.961Z,54.20
2018-04-13T15:27:31.502Z,54.30
2018-04-13T15:29:59.106Z,54.80
2018-04-13T15:32:28.262Z,55.20
2018-04-13T15:34:55.797Z,55.50
2018-04-13T15:37:24.079Z,56.30
2018-04-13T15:39:52.381Z,56.50
2018-04-13T15:42:20.602Z,56.50
2018-04-13T15:44:48.828Z,56.80
2018-04-13T15:47:17.028Z,56.80
2018-04-13T15:49:44.598Z,56.80
2018-04-13T15:52:12.124Z,56.90
2018-04-13T15:54:39.654Z,57.00
2018-04-13T15:57:07.382Z,56.90
2018-04-13T15:59:34.968Z,57.00
2018-04-13T16:02:02.542Z,56.60
2018-04-13T16:04:30.860Z,57.40
2018-04-13T16:06:59.181Z,56.60
2018-04-13T16:09:26.746Z,56.80
2018-04-13T16:11:54.748Z,57.00
2018-04-13T16:14:22.342Z,57.20
2018-04-13T16:16:50.722Z,57.40
2018-04-13T16:19:18.296Z,57.50
2018-04-13T16:21:45.892Z,57.60
2018-04-13T16:24:13.542Z,57.70
2018-04-13T16:26:41.145Z,57.80
2018-04-13T16:29:09.046Z,57.90
2018-04-13T16:31:36.658Z,58.30
2018-04-13T16:34:05.028Z,58.70
2018-04-13T16:36:33.210Z,58.60
2018-04-13T16:39:01.572Z,58.40
2018-04-13T16:41:29.985Z,58.80
2018-04-13T16:43:58.367Z,59.00
2018-04-13T16:46:25.922Z,59.00
2018-04-13T16:48:54.220Z,61.10
2018-04-13T16:51:21.786Z,61.10
2018-04-13T16:53:49.791Z,61.50
2018-04-13T16:56:17.370Z,62.30
2018-04-13T16:58:46.668Z,62.70
2018-04-13T17:01:14.275Z,63.50
2018-04-13T17:03:41.874Z,64.70
2018-04-13T17:06:09.466Z,65.30
2018-04-13T17:08:37.025Z,66.30
2018-04-13T17:11:04.591Z,67.40
2018-04-13T17:13:32.953Z,70.90
2018-04-13T17:16:00.561Z,70.90
2018-04-13T17:18:28.171Z,72.30
2018-04-13T17:20:55.772Z,73.30
2018-04-13T17:23:24.338Z,75.10
2018-04-13T17:25:52.709Z,77.10
2018-04-13T17:28:20.581Z,77.10
2018-04-13T17:30:48.205Z,78.50
2018-04-13T17:33:17.205Z,79.50
2018-04-13T17:35:44.820Z,80.20
2018-04-13T17:38:12.429Z,81.90
2018-04-13T17:40:44.516Z,85.50
2018-04-13T17:43:12.357Z,88.00
2018-04-13T17:45:39.933Z,90.20
2018-04-13T17:48:07.492Z,92.20
2018-04-13T17:50:35.416Z,93.20
2018-04-13T17:53:03.017Z,94.20
2018-04-13T17:55:30.594Z,94.30
2018-04-13T17:57:58.244Z,94.30
2018-04-13T18:00:25.822Z,94.20
2018-04-13T18:02:53.374Z,94.60
2018-04-13T18:05:22.688Z,94.60
2018-04-13T18:07:50.339Z,94.80
2018-04-13T18:10:17.953Z,94.60
2018-04-13T18:12:45.505Z,95.10
2018-04-13T18:15:18.390Z,95.50
2018-04-13T18:17:47.617Z,95.30
2018-04-13T18:20:15.551Z,95.30
2018-04-13T18:22:51.133Z,94.40
2018-04-13T18:25:19.610Z,94.40
2018-04-13T18:27:58.315Z,93.80
2018-04-13T18:30:26.330Z,93.70
2018-04-13T18:36:25.800Z,93.40
2018-04-13T18:41:45.203Z,93.40
2018-04-13T18:44:27.567Z,93.50
2018-04-13T18:47:05.607Z,93.50
2018-04-13T18:49:37.580Z,93.60
2018-04-13T18:52:18.525Z,93.90
2018-04-13T18:55:07.821Z,94.00
2018-04-13T18:57:46.265Z,93.60
2018-04-13T19:00:24.496Z,93.50
2018-04-13T19:02:57.842Z,93.60
2018-04-13T19:08:32.768Z,93.70
2018-04-13T19:11:08.400Z,94.10
2018-04-13T19:16:55.420Z,94.40
2018-04-13T19:25:37.722Z,95.60
2018-04-13T23:10:48.813Z,99.90
2018-04-13T23:13:20.327Z,99.90
2018-04-13T23:19:06.146Z,99.90
2018-04-13T23:36:47.395Z,99.90
2018-04-13T23:42:23.411Z,99.90
2018-04-13T23:47:46.913Z,99.90
2018-04-13T23:53:01.942Z,99.90
